createdAt,value
2022-10-19T00:00:20.293Z,18.97
2022-10-19T00:00:42.841Z,18.94
2022-10-19T00:01:05.892Z,18.89
2022-10-19T00:01:27.506Z,18.95
2022-10-19T00:01:49.183Z,18.93
2022-10-19T00:02:11.820Z,18.83
2022-10-19T00:02:36.125Z,18.92
2022-10-19T00:02:57.731Z,18.87
2022-10-19T00:03:22.353Z,18.89
2022-10-19T00:04:15.037Z,18.88
2022-10-19T00:04:36.851Z,18.93
2022-10-19T00:04:58.384Z,18.95
2022-10-19T00:05:21.000Z,18.96
2022-10-19T00:05:43.767Z,18.93
2022-10-19T00:06:14.417Z,18.93
2022-10-19T00:06:36.930Z,18.91
2022-10-19T00:06:59.520Z,18.90
2022-10-19T00:07:21.116Z,18.90
2022-10-19T00:07:42.751Z,18.91
2022-10-19T00:08:04.694Z,18.92
2022-10-19T00:08:27.558Z,18.79
2022-10-19T00:08:49.089Z,18.85
2022-10-19T00:09:12.931Z,18.88
2022-10-19T00:09:35.537Z,18.87
2022-10-19T00:09:57.110Z,18.86
2022-10-19T00:10:18.820Z,18.89
2022-10-19T00:10:40.889Z,18.88
2022-10-19T00:11:03.442Z,18.89
2022-10-19T00:11:25.536Z,18.92
2022-10-19T00:11:48.986Z,18.92
2022-10-19T00:12:12.891Z,18.92
2022-10-19T00:12:35.539Z,18.90
2022-10-19T00:12:57.137Z,18.95
2022-10-19T00:13:18.837Z,18.90
2022-10-19T00:13:40.714Z,18.92
2022-10-19T00:14:02.485Z,18.92
2022-10-19T00:14:26.405Z,18.89
2022-10-19T00:14:48.188Z,18.85
2022-10-19T00:15:10.309Z,18.87
2022-10-19T00:15:31.917Z,18.87
2022-10-19T00:15:53.579Z,18.89
2022-10-19T00:16:17.299Z,18.90
2022-10-19T00:16:39.807Z,18.87
2022-10-19T00:17:01.377Z,18.86
2022-10-19T00:17:22.945Z,18.84
2022-10-19T00:17:44.548Z,18.85
2022-10-19T00:18:07.314Z,18.87
2022-10-19T00:18:29.015Z,18.87
2022-10-19T00:18:50.676Z,18.86
2022-10-19T00:19:13.988Z,18.86
2022-10-19T00:19:36.487Z,18.84
2022-10-19T00:19:58.323Z,18.85
2022-10-19T00:20:19.867Z,18.83
2022-10-19T00:20:41.429Z,18.84
2022-10-19T00:21:04.941Z,18.83
2022-10-19T00:21:28.069Z,18.86
2022-10-19T00:22:16.850Z,18.87
2022-10-19T00:22:38.560Z,18.87
2022-10-19T00:23:01.266Z,18.82
2022-10-19T00:23:22.914Z,18.81
2022-10-19T00:23:45.419Z,18.80
2022-10-19T00:24:08.736Z,18.79
2022-10-19T00:24:30.344Z,18.80
2022-10-19T00:24:52.052Z,18.84
2022-10-19T00:25:13.630Z,18.86
2022-10-19T00:25:36.930Z,18.87
2022-10-19T00:25:58.915Z,18.89
2022-10-19T00:26:20.535Z,18.91
2022-10-19T00:26:43.832Z,18.90
2022-10-19T00:27:06.280Z,18.85
2022-10-19T00:27:27.852Z,18.85
2022-10-19T00:27:49.950Z,18.86
2022-10-19T00:28:12.528Z,18.85
2022-10-19T00:28:34.197Z,18.85
2022-10-19T00:28:56.395Z,18.84
2022-10-19T00:29:18.120Z,18.82
2022-10-19T00:29:42.021Z,18.78
2022-10-19T00:30:04.348Z,18.79
2022-10-19T00:30:25.960Z,18.79
2022-10-19T00:31:17.284Z,18.79
2022-10-19T00:31:39.428Z,18.68
2022-10-19T00:32:01.042Z,18.79
2022-10-19T00:32:23.585Z,18.76
2022-10-19T00:32:45.151Z,18.78
2022-10-19T00:33:06.755Z,18.80
2022-10-19T00:33:28.330Z,18.78
2022-10-19T00:33:51.099Z,18.74
2022-10-19T00:34:12.667Z,18.72
2022-10-19T00:34:34.288Z,18.73
2022-10-19T00:34:55.827Z,18.74
2022-10-19T00:35:19.089Z,18.71
2022-10-19T00:35:40.882Z,18.72
2022-10-19T00:36:03.194Z,18.69
2022-10-19T00:36:26.792Z,18.72
2022-10-19T00:36:49.485Z,18.71
2022-10-19T00:37:51.726Z,18.71
2022-10-19T00:38:13.308Z,18.77
2022-10-19T00:38:35.856Z,18.78
2022-10-19T00:38:58.055Z,18.72
2022-10-19T00:39:19.820Z,18.79
2022-10-19T00:39:41.573Z,18.81
2022-10-19T00:40:04.925Z,18.83
2022-10-19T00:40:26.542Z,18.82
2022-10-19T00:40:49.054Z,18.81
2022-10-19T00:41:10.651Z,18.77
2022-10-19T00:41:36.507Z,18.77
2022-10-19T00:41:58.157Z,18.78
2022-10-19T00:42:19.704Z,18.79
2022-10-19T00:42:41.264Z,18.66
2022-10-19T00:43:03.806Z,18.75
2022-10-19T00:43:27.381Z,18.75
2022-10-19T00:43:57.981Z,18.70
2022-10-19T00:44:59.042Z,18.72
2022-10-19T00:45:21.613Z,18.72
2022-10-19T00:45:43.761Z,18.70
2022-10-19T00:46:05.354Z,18.71
2022-10-19T00:46:29.433Z,18.72
2022-10-19T00:46:53.047Z,18.68
2022-10-19T00:47:16.339Z,18.69
2022-10-19T00:47:38.652Z,18.69
2022-10-19T00:48:00.264Z,18.71
2022-10-19T00:48:25.881Z,18.60
2022-10-19T00:49:20.132Z,18.69
2022-10-19T00:49:45.371Z,18.64
2022-10-19T00:50:08.082Z,18.70
2022-10-19T00:50:30.622Z,18.73
2022-10-19T00:50:54.356Z,18.71
2022-10-19T00:51:16.207Z,18.75
2022-10-19T00:51:43.001Z,18.75
2022-10-19T00:52:07.545Z,18.73
2022-10-19T00:52:29.808Z,18.74
2022-10-19T00:52:51.407Z,18.78
2022-10-19T00:53:13.078Z,18.79
2022-10-19T00:53:37.761Z,18.80
2022-10-19T00:54:02.181Z,18.81
2022-10-19T00:54:25.475Z,18.85
2022-10-19T00:54:49.080Z,18.86
2022-10-19T00:55:12.706Z,18.86
2022-10-19T00:55:34.942Z,18.82
2022-10-19T00:55:58.536Z,18.75
2022-10-19T00:56:20.409Z,18.83
2022-10-19T00:56:44.987Z,18.76
2022-10-19T00:57:07.557Z,18.73
2022-10-19T00:57:31.478Z,18.72
2022-10-19T00:57:53.374Z,18.71
2022-10-19T00:58:16.228Z,18.72
2022-10-19T00:58:38.392Z,18.69
2022-10-19T00:59:01.784Z,18.69
2022-10-19T00:59:26.477Z,18.67
2022-10-19T00:59:49.797Z,18.65
2022-10-19T01:00:13.538Z,18.68
2022-10-19T01:00:35.649Z,18.67
2022-10-19T01:00:59.130Z,18.70
2022-10-19T01:01:24.673Z,18.70
2022-10-19T01:01:47.469Z,18.71
2022-10-19T01:02:09.072Z,18.70
2022-10-19T01:02:30.890Z,18.70
2022-10-19T01:02:54.388Z,18.67
2022-10-19T01:03:15.987Z,18.65
2022-10-19T01:03:38.474Z,18.66
2022-10-19T01:04:00.953Z,18.61
2022-10-19T01:04:24.960Z,18.62
2022-10-19T01:04:51.997Z,18.60
2022-10-19T01:05:14.936Z,18.61
2022-10-19T01:05:36.687Z,18.64
2022-10-19T01:05:59.062Z,18.62
2022-10-19T01:06:24.287Z,18.57
2022-10-19T01:06:46.127Z,18.61
2022-10-19T01:07:08.202Z,18.63
2022-10-19T01:07:29.868Z,18.62
2022-10-19T01:07:53.029Z,18.62
2022-10-19T01:08:14.783Z,18.61
2022-10-19T01:08:36.371Z,18.59
2022-10-19T01:08:57.894Z,18.55
2022-10-19T01:09:19.615Z,18.60
2022-10-19T01:09:41.343Z,18.61
2022-10-19T01:10:05.200Z,18.63
2022-10-19T01:10:35.313Z,18.63
2022-10-19T01:11:07.911Z,18.56
2022-10-19T01:11:44.276Z,18.56
2022-10-19T01:12:13.864Z,18.54
2022-10-19T01:13:05.415Z,18.58
2022-10-19T01:13:40.262Z,18.53
2022-10-19T01:14:14.399Z,18.50
2022-10-19T01:14:45.931Z,18.51
2022-10-19T01:15:19.038Z,18.53
2022-10-19T01:15:49.359Z,18.53
2022-10-19T01:16:18.423Z,18.57
2022-10-19T01:16:51.167Z,18.53
2022-10-19T01:17:23.266Z,18.57
2022-10-19T01:17:55.098Z,18.52
2022-10-19T01:18:22.206Z,18.55
2022-10-19T01:18:51.502Z,18.52
2022-10-19T01:19:35.313Z,18.56
2022-10-19T01:20:21.722Z,18.53
2022-10-19T01:21:19.482Z,18.51
2022-10-19T01:21:45.846Z,18.54
2022-10-19T01:22:19.673Z,18.57
2022-10-19T01:22:59.939Z,18.55
2022-10-19T01:24:03.624Z,18.41
2022-10-19T01:24:50.545Z,18.55
2022-10-19T01:25:23.146Z,18.54
2022-10-19T01:25:56.639Z,18.43
2022-10-19T01:26:37.292Z,18.57
2022-10-19T01:27:44.736Z,18.58
2022-10-19T01:28:23.387Z,18.57
2022-10-19T01:28:55.525Z,18.54
2022-10-19T01:29:27.637Z,18.53
2022-10-19T01:30:01.096Z,18.52
2022-10-19T01:30:34.379Z,18.51
2022-10-19T01:31:02.861Z,18.54
2022-10-19T01:31:31.332Z,18.42
2022-10-19T01:32:00.209Z,18.51
2022-10-19T01:32:28.898Z,18.49
2022-10-19T01:33:04.200Z,18.46
2022-10-19T01:33:40.031Z,18.40
2022-10-19T01:34:08.715Z,18.38
2022-10-19T01:34:36.259Z,18.34
2022-10-19T01:35:05.768Z,18.32
2022-10-19T01:35:33.944Z,18.30
2022-10-19T01:36:06.165Z,18.29
2022-10-19T01:36:38.874Z,18.31
2022-10-19T01:37:07.304Z,18.29
2022-10-19T01:37:37.537Z,18.21
2022-10-19T01:38:09.317Z,18.22
2022-10-19T01:38:37.516Z,18.19
2022-10-19T01:39:08.100Z,18.22
2022-10-19T01:39:38.417Z,18.19
2022-10-19T01:40:05.350Z,18.21
2022-10-19T01:40:30.940Z,18.21
2022-10-19T01:40:59.616Z,18.23
2022-10-19T01:41:28.297Z,18.24
2022-10-19T01:41:57.272Z,18.20
2022-10-19T01:42:28.702Z,18.21
2022-10-19T01:43:02.215Z,18.20
2022-10-19T01:43:33.033Z,18.22
2022-10-19T01:44:01.469Z,18.19
2022-10-19T01:44:30.356Z,18.26
2022-10-19T01:44:55.200Z,18.29
2022-10-19T01:45:22.892Z,18.29
2022-10-19T01:45:49.995Z,18.31
2022-10-19T01:46:15.286Z,18.30
2022-10-19T01:46:39.339Z,18.31
2022-10-19T01:47:05.653Z,18.33
2022-10-19T01:47:32.994Z,18.33
2022-10-19T01:48:02.977Z,18.39
2022-10-19T01:48:28.951Z,18.42
2022-10-19T01:48:55.199Z,18.43
2022-10-19T01:49:22.644Z,18.39
2022-10-19T01:49:50.914Z,18.39
2022-10-19T01:50:17.749Z,18.35
2022-10-19T01:50:42.739Z,18.31
2022-10-19T01:51:07.576Z,18.32
2022-10-19T01:51:33.587Z,18.33
2022-10-19T01:52:27.317Z,18.36
2022-10-19T01:52:51.623Z,18.38
2022-10-19T01:53:16.761Z,18.42
2022-10-19T01:53:43.503Z,18.38
2022-10-19T01:54:11.922Z,18.38
2022-10-19T01:54:39.706Z,18.34
2022-10-19T01:55:03.271Z,18.27
2022-10-19T01:55:26.844Z,18.32
2022-10-19T01:55:51.357Z,18.32
2022-10-19T01:56:15.712Z,18.32
2022-10-19T01:56:42.045Z,18.30
2022-10-19T01:57:07.269Z,18.30
2022-10-19T01:57:33.687Z,18.28
2022-10-19T01:58:00.314Z,18.25
2022-10-19T01:58:27.155Z,18.23
2022-10-19T01:58:51.296Z,18.24
2022-10-19T01:59:16.417Z,18.25
2022-10-19T01:59:39.628Z,18.23
2022-10-19T02:00:07.295Z,18.20
2022-10-19T02:00:37.500Z,18.13
2022-10-19T02:01:05.637Z,18.16
2022-10-19T02:01:33.341Z,18.25
2022-10-19T02:01:55.991Z,18.18
2022-10-19T02:02:19.836Z,18.22
2022-10-19T02:02:46.817Z,18.19
2022-10-19T02:03:10.094Z,18.16
2022-10-19T02:03:33.890Z,18.16
2022-10-19T02:03:57.302Z,18.16
2022-10-19T02:04:22.245Z,18.14
2022-10-19T02:04:45.286Z,18.01
2022-10-19T02:05:08.291Z,18.08
2022-10-19T02:05:32.757Z,18.07
2022-10-19T02:05:57.071Z,18.03
2022-10-19T02:06:19.392Z,18.05
2022-10-19T02:06:41.488Z,17.97
2022-10-19T02:07:06.267Z,18.03
2022-10-19T02:07:28.344Z,18.04
2022-10-19T02:07:57.791Z,17.96
2022-10-19T02:08:24.947Z,18.04
2022-10-19T02:08:49.996Z,18.06
2022-10-19T02:09:17.876Z,18.07
2022-10-19T02:09:39.564Z,18.04
2022-10-19T02:10:01.339Z,18.07
2022-10-19T02:10:25.767Z,18.08
2022-10-19T02:10:48.921Z,18.08
2022-10-19T02:11:10.648Z,18.08
2022-10-19T02:11:33.970Z,18.09
2022-10-19T02:12:00.340Z,18.08
2022-10-19T02:12:22.685Z,18.08
2022-10-19T02:12:45.267Z,18.11
2022-10-19T02:13:08.069Z,18.09
2022-10-19T02:13:31.595Z,18.12
2022-10-19T02:13:58.666Z,18.14
2022-10-19T02:14:24.029Z,18.04
2022-10-19T02:14:50.203Z,18.08
2022-10-19T02:15:16.087Z,18.13
2022-10-19T02:15:42.403Z,18.14
2022-10-19T02:16:09.577Z,18.16
2022-10-19T02:16:37.517Z,18.16
2022-10-19T02:17:05.057Z,18.16
2022-10-19T02:17:30.833Z,18.14
2022-10-19T02:17:57.187Z,18.15
2022-10-19T02:18:24.520Z,18.13
2022-10-19T02:18:49.404Z,18.12
2022-10-19T02:19:15.462Z,18.13
2022-10-19T02:19:37.128Z,18.10
2022-10-19T02:20:00.412Z,18.12
2022-10-19T02:20:22.085Z,18.08
2022-10-19T02:20:43.740Z,17.98
2022-10-19T02:21:06.712Z,18.02
2022-10-19T02:21:29.401Z,18.02
2022-10-19T02:21:51.992Z,17.99
2022-10-19T02:22:13.887Z,18.02
2022-10-19T02:22:35.816Z,18.06
2022-10-19T02:22:58.640Z,18.10
2022-10-19T02:23:24.129Z,18.07
2022-10-19T02:23:47.512Z,18.04
2022-10-19T02:24:10.876Z,18.04
2022-10-19T02:24:33.583Z,18.03
2022-10-19T02:24:55.184Z,18.06
2022-10-19T02:25:17.150Z,18.06
2022-10-19T02:25:38.812Z,18.09
2022-10-19T02:26:00.402Z,18.08
2022-10-19T02:26:23.407Z,18.08
2022-10-19T02:26:45.549Z,18.08
2022-10-19T02:27:08.710Z,18.08
2022-10-19T02:27:30.430Z,18.10
2022-10-19T02:27:53.196Z,18.12
2022-10-19T02:28:14.883Z,18.12
2022-10-19T02:28:36.965Z,18.06
2022-10-19T02:28:58.986Z,18.08
2022-10-19T02:29:21.839Z,18.00
2022-10-19T02:29:43.550Z,18.02
2022-10-19T02:30:06.773Z,18.01
2022-10-19T02:30:28.585Z,17.98
2022-10-19T02:30:52.516Z,17.99
2022-10-19T02:31:14.281Z,18.00
2022-10-19T02:31:36.391Z,17.93
2022-10-19T02:31:59.074Z,17.99
2022-10-19T02:32:20.860Z,17.99
2022-10-19T02:32:43.694Z,18.01
2022-10-19T02:33:05.491Z,18.04
2022-10-19T02:33:27.590Z,18.03
2022-10-19T02:33:50.222Z,18.01
2022-10-19T02:34:12.849Z,18.05
2022-10-19T02:34:36.112Z,18.05
2022-10-19T02:34:58.077Z,18.08
2022-10-19T02:35:20.911Z,18.12
2022-10-19T02:35:42.958Z,18.12
2022-10-19T02:36:05.305Z,18.09
2022-10-19T02:36:27.016Z,18.06
2022-10-19T02:36:50.363Z,18.06
2022-10-19T02:37:12.074Z,18.08
2022-10-19T02:37:33.939Z,18.09
2022-10-19T02:38:00.053Z,18.10
2022-10-19T02:38:24.698Z,18.09
2022-10-19T02:38:46.475Z,18.05
2022-10-19T02:39:08.742Z,18.05
2022-10-19T02:39:31.461Z,18.02
2022-10-19T02:39:53.129Z,18.05
2022-10-19T02:40:14.845Z,18.07
2022-10-19T02:40:39.764Z,18.07
2022-10-19T02:41:07.382Z,18.07
2022-10-19T02:41:34.573Z,18.08
2022-10-19T02:42:03.278Z,17.95
2022-10-19T02:42:29.018Z,18.00
2022-10-19T02:42:57.105Z,17.99
2022-10-19T02:43:21.272Z,18.01
2022-10-19T02:43:47.996Z,17.88
2022-10-19T02:44:15.682Z,17.98
2022-10-19T02:44:43.279Z,17.98
2022-10-19T02:45:10.468Z,17.99
2022-10-19T02:45:36.154Z,17.96
2022-10-19T02:46:04.118Z,18.00
2022-10-19T02:46:30.173Z,18.01
2022-10-19T02:46:59.451Z,18.03
2022-10-19T02:47:26.012Z,18.06
2022-10-19T02:47:52.188Z,18.08
2022-10-19T02:48:19.905Z,18.06
2022-10-19T02:48:44.012Z,18.08
2022-10-19T02:49:07.521Z,18.07
2022-10-19T02:49:30.686Z,18.02
2022-10-19T02:49:52.690Z,18.02
2022-10-19T02:50:14.494Z,18.01
2022-10-19T02:50:37.158Z,17.99
2022-10-19T02:50:58.737Z,18.00
2022-10-19T02:51:31.019Z,17.98
2022-10-19T02:51:59.468Z,17.96
2022-10-19T02:52:22.017Z,17.92
2022-10-19T02:52:43.609Z,17.92
2022-10-19T02:53:05.206Z,17.92
2022-10-19T02:53:26.814Z,17.89
2022-10-19T02:53:48.329Z,17.93
2022-10-19T02:54:10.841Z,17.93
2022-10-19T02:54:32.453Z,17.89
2022-10-19T02:54:54.034Z,17.93
2022-10-19T02:55:15.616Z,17.95
2022-10-19T02:55:38.325Z,17.73
2022-10-19T02:56:00.005Z,17.94
2022-10-19T02:56:21.736Z,17.91
2022-10-19T02:56:43.292Z,17.84
2022-10-19T02:57:15.809Z,17.86
2022-10-19T02:57:37.712Z,17.87
2022-10-19T02:57:59.480Z,17.87
2022-10-19T02:58:21.225Z,17.89
2022-10-19T02:58:43.757Z,17.86
2022-10-19T02:59:05.325Z,17.86
2022-10-19T02:59:26.976Z,17.86
2022-10-19T02:59:48.796Z,17.87
2022-10-19T03:00:12.468Z,17.90
2022-10-19T03:00:34.153Z,17.90
2022-10-19T03:00:55.768Z,17.86
2022-10-19T03:01:18.737Z,17.91
2022-10-19T03:01:41.515Z,17.93
2022-10-19T03:02:03.121Z,17.91
2022-10-19T03:02:26.077Z,17.90
2022-10-19T03:02:48.172Z,17.90
2022-10-19T03:03:11.652Z,17.89
2022-10-19T03:03:33.233Z,17.83
2022-10-19T03:03:54.804Z,17.83
2022-10-19T03:04:16.373Z,17.80
2022-10-19T03:04:39.225Z,17.78
2022-10-19T03:05:00.833Z,17.79
2022-10-19T03:05:22.403Z,17.81
2022-10-19T03:05:44.001Z,17.79
2022-10-19T03:06:06.571Z,17.76
2022-10-19T03:06:28.140Z,17.80
2022-10-19T03:06:49.760Z,17.84
2022-10-19T03:07:14.627Z,17.86
2022-10-19T03:07:37.826Z,17.84
2022-10-19T03:07:59.481Z,17.80
2022-10-19T03:08:21.082Z,17.77
2022-10-19T03:08:42.764Z,17.78
2022-10-19T03:09:05.332Z,17.77
2022-10-19T03:09:27.135Z,17.77
2022-10-19T03:09:48.849Z,17.75
2022-10-19T03:10:10.408Z,17.72
2022-10-19T03:10:32.936Z,17.74
2022-10-19T03:10:54.549Z,17.75
2022-10-19T03:11:16.103Z,17.72
2022-10-19T03:11:37.664Z,17.72
2022-10-19T03:12:00.155Z,17.74
2022-10-19T03:12:21.729Z,17.72
2022-10-19T03:12:43.407Z,17.78
2022-10-19T03:13:05.875Z,17.83
2022-10-19T03:13:27.486Z,17.86
2022-10-19T03:13:49.136Z,17.87
2022-10-19T03:14:10.734Z,17.85
2022-10-19T03:14:32.497Z,17.81
2022-10-19T03:14:55.066Z,17.79
2022-10-19T03:15:18.050Z,17.75
2022-10-19T03:15:39.601Z,17.74
2022-10-19T03:16:06.869Z,17.76
2022-10-19T03:16:30.736Z,17.77
2022-10-19T03:16:52.288Z,17.79
2022-10-19T03:17:13.878Z,17.77
2022-10-19T03:17:35.877Z,17.79
2022-10-19T03:17:58.643Z,17.79
2022-10-19T03:18:20.169Z,17.79
2022-10-19T03:18:41.872Z,17.82
2022-10-19T03:19:03.433Z,17.82
2022-10-19T03:19:26.292Z,17.81
2022-10-19T03:19:47.900Z,17.81
2022-10-19T03:20:10.468Z,17.78
2022-10-19T03:20:32.081Z,17.80
2022-10-19T03:21:01.976Z,17.79
2022-10-19T03:21:24.491Z,17.78
2022-10-19T03:21:46.138Z,17.76
2022-10-19T03:22:07.908Z,17.74
2022-10-19T03:22:29.489Z,17.70
2022-10-19T03:23:14.971Z,17.73
2022-10-19T03:23:37.672Z,17.73
2022-10-19T03:24:01.576Z,17.72
2022-10-19T03:24:23.791Z,17.74
2022-10-19T03:24:45.353Z,17.74
2022-10-19T03:25:07.609Z,17.73
2022-10-19T03:25:30.162Z,17.74
2022-10-19T03:25:51.700Z,17.75
2022-10-19T03:26:15.297Z,17.74
2022-10-19T03:26:36.904Z,17.78
2022-10-19T03:26:59.442Z,17.79
2022-10-19T03:27:21.018Z,17.71
2022-10-19T03:27:42.612Z,17.72
2022-10-19T03:28:04.233Z,17.69
2022-10-19T03:28:26.748Z,17.75
2022-10-19T03:28:48.401Z,17.77
2022-10-19T03:29:09.993Z,17.79
2022-10-19T03:29:31.582Z,17.77
2022-10-19T03:29:53.120Z,17.78
2022-10-19T03:30:15.649Z,17.81
2022-10-19T03:30:37.241Z,17.79
2022-10-19T03:30:59.032Z,17.79
2022-10-19T03:31:20.712Z,17.79
2022-10-19T03:31:44.628Z,17.77
2022-10-19T03:32:06.217Z,17.75
2022-10-19T03:32:27.798Z,17.73
2022-10-19T03:32:50.318Z,17.73
2022-10-19T03:33:11.898Z,17.68
2022-10-19T03:33:33.558Z,17.69
2022-10-19T03:33:55.209Z,17.70
2022-10-19T03:34:17.807Z,17.70
2022-10-19T03:34:39.389Z,17.67
2022-10-19T03:35:00.967Z,17.67
2022-10-19T03:35:22.512Z,17.66
2022-10-19T03:35:45.047Z,17.64
2022-10-19T03:36:15.285Z,17.66
2022-10-19T03:36:39.065Z,17.70
2022-10-19T03:37:00.647Z,17.68
2022-10-19T03:37:22.220Z,17.71
2022-10-19T03:37:44.711Z,17.69
2022-10-19T03:38:06.671Z,17.69
2022-10-19T03:38:28.206Z,17.70
2022-10-19T03:38:51.441Z,17.69
2022-10-19T03:39:16.724Z,17.72
2022-10-19T03:39:38.315Z,17.77
2022-10-19T03:40:00.056Z,17.77
2022-10-19T03:40:22.636Z,17.74
2022-10-19T03:40:44.246Z,17.79
2022-10-19T03:41:05.955Z,17.77
2022-10-19T03:41:29.203Z,17.74
2022-10-19T03:41:51.721Z,17.75
2022-10-19T03:42:13.265Z,17.82
2022-10-19T03:42:34.875Z,17.85
2022-10-19T03:42:56.451Z,17.81
2022-10-19T03:43:18.949Z,17.89
2022-10-19T03:43:41.176Z,17.87
2022-10-19T03:44:03.685Z,17.84
2022-10-19T03:44:25.337Z,17.83
2022-10-19T03:44:47.907Z,17.77
2022-10-19T03:45:10.278Z,17.84
2022-10-19T03:45:31.941Z,17.83
2022-10-19T03:45:53.523Z,17.83
2022-10-19T03:46:15.483Z,17.81
2022-10-19T03:46:38.889Z,17.83
2022-10-19T03:47:01.826Z,17.83
2022-10-19T03:47:23.401Z,17.85
2022-10-19T03:47:50.276Z,17.86
2022-10-19T03:48:11.834Z,17.85
2022-10-19T03:48:34.001Z,17.81
2022-10-19T03:48:55.625Z,17.83
2022-10-19T03:49:18.159Z,17.81
2022-10-19T03:49:40.387Z,17.79
2022-10-19T03:50:02.187Z,17.82
2022-10-19T03:50:23.773Z,17.79
2022-10-19T03:50:45.333Z,17.77
2022-10-19T03:51:10.612Z,17.66
2022-10-19T03:51:33.274Z,17.77
2022-10-19T03:51:54.864Z,17.76
2022-10-19T03:52:17.324Z,17.77
2022-10-19T03:52:39.854Z,17.76
2022-10-19T03:53:04.419Z,17.73
2022-10-19T03:53:26.080Z,17.74
2022-10-19T03:53:47.849Z,17.73
2022-10-19T03:54:13.765Z,17.74
2022-10-19T03:54:36.445Z,17.74
2022-10-19T03:54:58.450Z,17.70
2022-10-19T03:55:20.031Z,17.73
2022-10-19T03:55:41.597Z,17.64
2022-10-19T03:56:04.763Z,17.67
2022-10-19T03:56:29.049Z,17.63
2022-10-19T03:56:50.611Z,17.66
2022-10-19T03:57:12.798Z,17.65
2022-10-19T03:57:34.732Z,17.72
2022-10-19T03:57:58.842Z,17.73
2022-10-19T03:58:20.405Z,17.72
2022-10-19T03:58:43.418Z,17.67
2022-10-19T03:59:06.445Z,17.69
2022-10-19T03:59:28.996Z,17.71
2022-10-19T03:59:50.517Z,17.68
2022-10-19T04:00:13.403Z,17.68
2022-10-19T04:00:35.007Z,17.67
2022-10-19T04:00:56.705Z,17.69
2022-10-19T04:01:22.572Z,17.67
2022-10-19T04:01:45.781Z,17.66
2022-10-19T04:02:08.741Z,17.65
2022-10-19T04:02:30.401Z,17.66
2022-10-19T04:02:52.944Z,17.69
2022-10-19T04:03:14.646Z,17.66
2022-10-19T04:04:05.804Z,17.66
2022-10-19T04:04:28.634Z,17.62
2022-10-19T04:04:50.192Z,17.58
2022-10-19T04:05:11.782Z,17.60
2022-10-19T04:05:33.324Z,17.62
2022-10-19T04:06:03.279Z,17.61
2022-10-19T04:06:26.849Z,17.62
2022-10-19T04:06:49.969Z,17.57
2022-10-19T04:07:12.517Z,17.59
2022-10-19T04:07:34.300Z,17.60
2022-10-19T04:07:56.291Z,17.59
2022-10-19T04:08:18.058Z,17.59
2022-10-19T04:08:39.676Z,17.61
2022-10-19T04:09:03.043Z,17.54
2022-10-19T04:09:24.586Z,17.60
2022-10-19T04:09:46.132Z,17.58
2022-10-19T04:10:08.444Z,17.56
2022-10-19T04:10:32.159Z,17.50
2022-10-19T04:10:58.960Z,17.52
2022-10-19T04:11:22.893Z,17.51
2022-10-19T04:11:44.777Z,17.48
2022-10-19T04:12:07.312Z,17.50
2022-10-19T04:12:28.865Z,17.53
2022-10-19T04:12:53.784Z,17.42
2022-10-19T04:13:15.735Z,17.58
2022-10-19T04:13:37.516Z,17.59
2022-10-19T04:14:00.995Z,17.62
2022-10-19T04:14:32.225Z,17.64
2022-10-19T04:14:57.652Z,17.63
2022-10-19T04:15:20.527Z,17.60
2022-10-19T04:15:42.119Z,17.55
2022-10-19T04:16:04.000Z,17.54
2022-10-19T04:16:27.302Z,17.51
2022-10-19T04:16:48.941Z,17.51
2022-10-19T04:17:13.027Z,17.50
2022-10-19T04:17:34.834Z,17.33
2022-10-19T04:17:56.632Z,17.51
2022-10-19T04:18:18.208Z,17.43
2022-10-19T04:18:39.745Z,17.51
2022-10-19T04:19:02.709Z,17.51
2022-10-19T04:19:24.289Z,17.50
2022-10-19T04:19:45.844Z,17.49
2022-10-19T04:20:08.423Z,17.50
2022-10-19T04:20:30.949Z,17.47
2022-10-19T04:21:03.441Z,17.45
2022-10-19T04:21:27.495Z,17.44
2022-10-19T04:21:50.222Z,17.45
2022-10-19T04:22:11.828Z,17.46
2022-10-19T04:22:33.434Z,17.41
2022-10-19T04:22:54.997Z,17.40
2022-10-19T04:23:40.016Z,17.40
2022-10-19T04:24:03.748Z,17.36
2022-10-19T04:24:25.276Z,17.37
2022-10-19T04:24:47.817Z,17.34
2022-10-19T04:25:12.252Z,17.31
2022-10-19T04:25:33.867Z,17.38
2022-10-19T04:26:00.112Z,17.39
2022-10-19T04:26:22.648Z,17.44
2022-10-19T04:26:45.860Z,17.41
2022-10-19T04:27:07.419Z,17.48
2022-10-19T04:27:29.940Z,17.49
2022-10-19T04:27:51.482Z,17.50
2022-10-19T04:28:13.068Z,17.48
2022-10-19T04:28:35.248Z,17.40
2022-10-19T04:28:58.717Z,17.38
2022-10-19T04:29:26.228Z,17.42
2022-10-19T04:29:51.091Z,17.43
2022-10-19T04:30:13.648Z,17.41
2022-10-19T04:30:35.222Z,17.41
2022-10-19T04:30:57.136Z,17.38
2022-10-19T04:31:18.775Z,17.38
2022-10-19T04:31:41.696Z,17.37
2022-10-19T04:32:03.296Z,17.33
2022-10-19T04:32:26.227Z,17.32
2022-10-19T04:32:47.815Z,17.33
2022-10-19T04:33:09.382Z,17.34
2022-10-19T04:33:31.009Z,17.30
2022-10-19T04:33:53.595Z,17.28
2022-10-19T04:34:15.262Z,17.27
2022-10-19T04:34:39.890Z,17.30
2022-10-19T04:35:01.806Z,17.28
2022-10-19T04:35:24.337Z,17.30
2022-10-19T04:35:46.036Z,17.35
2022-10-19T04:36:12.953Z,17.36
2022-10-19T04:36:35.143Z,17.35
2022-10-19T04:36:59.305Z,17.39
2022-10-19T04:37:21.036Z,17.40
2022-10-19T04:37:42.697Z,17.42
2022-10-19T04:38:04.332Z,17.40
2022-10-19T04:38:26.252Z,17.39
2022-10-19T04:38:48.880Z,17.40
2022-10-19T04:39:10.689Z,17.42
2022-10-19T04:39:32.324Z,17.44
2022-10-19T04:39:53.899Z,17.46
2022-10-19T04:40:16.441Z,17.44
2022-10-19T04:40:38.296Z,17.43
2022-10-19T04:41:02.619Z,17.41
2022-10-19T04:41:24.169Z,17.41
2022-10-19T04:41:46.882Z,17.40
2022-10-19T04:42:08.464Z,17.42
2022-10-19T04:42:30.056Z,17.41
2022-10-19T04:42:51.675Z,17.35
2022-10-19T04:43:14.245Z,17.42
2022-10-19T04:43:36.477Z,17.43
2022-10-19T04:44:00.508Z,17.42
2022-10-19T04:44:25.219Z,17.41
2022-10-19T04:44:49.567Z,17.35
2022-10-19T04:45:11.592Z,17.34
2022-10-19T04:45:35.376Z,17.34
2022-10-19T04:45:57.041Z,17.39
2022-10-19T04:46:20.502Z,17.38
2022-10-19T04:46:42.103Z,17.37
2022-10-19T04:47:03.657Z,17.36
2022-10-19T04:47:27.544Z,17.33
2022-10-19T04:47:49.084Z,17.32
2022-10-19T04:48:10.812Z,17.31
2022-10-19T04:48:34.200Z,17.32
2022-10-19T04:48:57.621Z,17.30
2022-10-19T04:49:20.341Z,17.27
2022-10-19T04:49:41.943Z,17.28
2022-10-19T04:50:04.038Z,17.28
2022-10-19T04:50:27.104Z,17.28
2022-10-19T04:50:54.432Z,17.33
2022-10-19T04:51:17.650Z,17.35
2022-10-19T04:51:40.178Z,17.31
2022-10-19T04:52:01.836Z,17.24
2022-10-19T04:52:23.420Z,17.29
2022-10-19T04:52:45.529Z,17.32
2022-10-19T04:53:08.079Z,17.30
2022-10-19T04:53:29.849Z,17.29
2022-10-19T04:53:53.393Z,17.32
2022-10-19T04:54:18.139Z,17.35
2022-10-19T04:54:39.705Z,17.32
2022-10-19T04:55:01.302Z,17.33
2022-10-19T04:55:22.896Z,17.34
2022-10-19T04:55:44.503Z,17.36
2022-10-19T04:56:08.654Z,17.39
2022-10-19T04:56:32.208Z,17.41
2022-10-19T04:56:53.903Z,17.41
2022-10-19T04:57:16.508Z,17.40
2022-10-19T04:57:38.068Z,17.41
2022-10-19T04:57:59.610Z,17.41
2022-10-19T04:58:21.384Z,17.44
2022-10-19T04:58:44.300Z,17.44
2022-10-19T04:59:05.909Z,17.46
2022-10-19T04:59:28.098Z,17.47
2022-10-19T04:59:49.640Z,17.42
2022-10-19T05:00:13.330Z,17.42
2022-10-19T05:00:35.314Z,17.36
2022-10-19T05:00:56.977Z,17.39
2022-10-19T05:01:21.036Z,17.37
2022-10-19T05:01:46.404Z,17.37
2022-10-19T05:02:08.939Z,17.35
2022-10-19T05:02:31.886Z,17.34
2022-10-19T05:02:53.453Z,17.29
2022-10-19T05:03:16.560Z,17.25
2022-10-19T05:03:38.651Z,17.27
2022-10-19T05:04:01.563Z,17.28
2022-10-19T05:04:24.121Z,17.28
2022-10-19T05:04:47.745Z,17.25
2022-10-19T05:05:09.788Z,17.31
2022-10-19T05:05:32.283Z,17.32
2022-10-19T05:05:53.817Z,17.29
2022-10-19T05:06:17.059Z,17.28
2022-10-19T05:06:38.597Z,17.26
2022-10-19T05:07:00.787Z,17.25
2022-10-19T05:07:22.412Z,17.28
2022-10-19T05:07:44.924Z,17.27
2022-10-19T05:08:06.919Z,17.27
2022-10-19T05:08:28.462Z,17.31
2022-10-19T05:08:50.426Z,17.26
2022-10-19T05:09:13.020Z,17.31
2022-10-19T05:09:34.615Z,17.30
2022-10-19T05:09:56.198Z,17.29
2022-10-19T05:10:17.999Z,17.23
2022-10-19T05:10:41.196Z,17.23
2022-10-19T05:11:07.684Z,17.28
2022-10-19T05:11:29.289Z,17.29
2022-10-19T05:11:50.893Z,17.27
2022-10-19T05:12:13.436Z,17.26
2022-10-19T05:12:35.230Z,17.19